sensor_id;sensor_type;location;lat;lon;timestamp;P1;durP1;ratioP1;P2;durP2;ratioP2
9422;SDS011;65863;49.506;10.400;2023-11-21T00:01:36;2.43;;;1.23;;
9422;SDS011;65863;49.506;10.400;2023-11-21T00:04:20;2.63;;;1.23;;
9422;SDS011;65863;49.506;10.400;2023-11-21T00:07:04;4.63;;;1.70;;
9422;SDS011;65863;49.506;10.400;2023-11-21T00:09:49;4.10;;;1.37;;
9422;SDS011;65863;49.506;10.400;2023-11-21T00:12:34;4.93;;;1.33;;
9422;SDS011;65863;49.506;10.400;2023-11-21T00:15:18;1.93;;;1.20;;
9422;SDS011;65863;49.506;10.400;2023-11-21T00:18:02;4.23;;;1.33;;
9422;SDS011;65863;49.506;10.400;2023-11-21T00:20:46;2.90;;;1.30;;
9422;SDS011;65863;49.506;10.400;2023-11-21T00:23:30;4.03;;;1.47;;
9422;SDS011;65863;49.506;10.400;2023-11-21T00:26:14;3.23;;;1.47;;
9422;SDS011;65863;49.506;10.400;2023-11-21T00:29:00;5.23;;;1.90;;
9422;SDS011;65863;49.506;10.400;2023-11-21T00:31:45;1.63;;;1.10;;
9422;SDS011;65863;49.506;10.400;2023-11-21T00:34:29;4.37;;;1.20;;
9422;SDS011;65863;49.506;10.400;2023-11-21T00:37:14;2.50;;;1.37;;
9422;SDS011;65863;49.506;10.400;2023-11-21T00:39:59;3.13;;;1.10;;
9422;SDS011;65863;49.506;10.400;2023-11-21T00:42:46;2.10;;;1.20;;
9422;SDS011;65863;49.506;10.400;2023-11-21T00:45:31;3.60;;;1.20;;
9422;SDS011;65863;49.506;10.400;2023-11-21T00:48:15;1.47;;;1.20;;
9422;SDS011;65863;49.506;10.400;2023-11-21T00:50:59;2.63;;;1.30;;
9422;SDS011;65863;49.506;10.400;2023-11-21T00:53:43;2.33;;;1.10;;
9422;SDS011;65863;49.506;10.400;2023-11-21T00:56:26;2.43;;;1.23;;
9422;SDS011;65863;49.506;10.400;2023-11-21T00:59:11;1.13;;;1.00;;
9422;SDS011;65863;49.506;10.400;2023-11-21T01:01:55;1.33;;;0.93;;
9422;SDS011;65863;49.506;10.400;2023-11-21T01:04:39;2.37;;;1.00;;
9422;SDS011;65863;49.506;10.400;2023-11-21T01:07:23;2.20;;;1.20;;
9422;SDS011;65863;49.506;10.400;2023-11-21T01:10:08;2.87;;;1.33;;
9422;SDS011;65863;49.506;10.400;2023-11-21T01:13:12;2.60;;;1.30;;
9422;SDS011;65863;49.506;10.400;2023-11-21T01:15:58;2.30;;;1.40;;
9422;SDS011;65863;49.506;10.400;2023-11-21T01:18:43;1.30;;;1.20;;
9422;SDS011;65863;49.506;10.400;2023-11-21T01:21:27;2.40;;;1.30;;
9422;SDS011;65863;49.506;10.400;2023-11-21T01:24:11;1.43;;;1.33;;
9422;SDS011;65863;49.506;10.400;2023-11-21T01:26:55;4.17;;;1.50;;
9422;SDS011;65863;49.506;10.400;2023-11-21T01:29:39;3.37;;;1.50;;
9422;SDS011;65863;49.506;10.400;2023-11-21T01:32:23;1.73;;;1.20;;
9422;SDS011;65863;49.506;10.400;2023-11-21T01:35:07;1.83;;;1.30;;
9422;SDS011;65863;49.506;10.400;2023-11-21T01:37:53;2.30;;;1.33;;
9422;SDS011;65863;49.506;10.400;2023-11-21T01:40:37;2.83;;;1.40;;
9422;SDS011;65863;49.506;10.400;2023-11-21T01:43:21;1.57;;;1.30;;
9422;SDS011;65863;49.506;10.400;2023-11-21T01:46:05;2.93;;;1.50;;
9422;SDS011;65863;49.506;10.400;2023-11-21T01:48:50;3.30;;;1.70;;
9422;SDS011;65863;49.506;10.400;2023-11-21T01:51:34;3.93;;;2.00;;
9422;SDS011;65863;49.506;10.400;2023-11-21T01:54:20;5.53;;;2.13;;
9422;SDS011;65863;49.506;10.400;2023-11-21T01:57:05;3.50;;;2.17;;
9422;SDS011;65863;49.506;10.400;2023-11-21T01:59:50;4.63;;;2.00;;
9422;SDS011;65863;49.506;10.400;2023-11-21T02:02:38;3.70;;;1.87;;
9422;SDS011;65863;49.506;10.400;2023-11-21T02:05:22;2.63;;;1.90;;
9422;SDS011;65863;49.506;10.400;2023-11-21T02:08:06;4.17;;;2.10;;
9422;SDS011;65863;49.506;10.400;2023-11-21T02:10:53;3.60;;;2.23;;
9422;SDS011;65863;49.506;10.400;2023-11-21T02:13:36;5.90;;;2.60;;
9422;SDS011;65863;49.506;10.400;2023-11-21T02:16:21;4.33;;;2.47;;
9422;SDS011;65863;49.506;10.400;2023-11-21T02:19:06;3.73;;;2.50;;
9422;SDS011;65863;49.506;10.400;2023-11-21T02:21:53;4.20;;;2.40;;
9422;SDS011;65863;49.506;10.400;2023-11-21T02:24:37;3.97;;;2.30;;
9422;SDS011;65863;49.506;10.400;2023-11-21T02:27:26;4.00;;;2.53;;
9422;SDS011;65863;49.506;10.400;2023-11-21T02:30:12;3.40;;;2.30;;
9422;SDS011;65863;49.506;10.400;2023-11-21T02:32:57;2.97;;;2.30;;
9422;SDS011;65863;49.506;10.400;2023-11-21T02:35:42;4.77;;;2.30;;
9422;SDS011;65863;49.506;10.400;2023-11-21T02:38:27;4.87;;;2.47;;
9422;SDS011;65863;49.506;10.400;2023-11-21T02:41:11;4.43;;;2.40;;
9422;SDS011;65863;49.506;10.400;2023-11-21T02:43:55;4.43;;;2.47;;
9422;SDS011;65863;49.506;10.400;2023-11-21T02:46:39;3.43;;;2.23;;
9422;SDS011;65863;49.506;10.400;2023-11-21T02:49:24;5.00;;;2.50;;
9422;SDS011;65863;49.506;10.400;2023-11-21T02:52:08;4.00;;;2.30;;
9422;SDS011;65863;49.506;10.400;2023-11-21T02:54:52;4.17;;;2.07;;
9422;SDS011;65863;49.506;10.400;2023-11-21T02:57:37;3.20;;;2.37;;
9422;SDS011;65863;49.506;10.400;2023-11-21T03:00:20;3.97;;;2.23;;
9422;SDS011;65863;49.506;10.400;2023-11-21T03:03:08;3.87;;;2.13;;
9422;SDS011;65863;49.506;10.400;2023-11-21T03:05:51;3.27;;;2.40;;
9422;SDS011;65863;49.506;10.400;2023-11-21T03:08:35;2.57;;;2.20;;
9422;SDS011;65863;49.506;10.400;2023-11-21T03:11:20;3.07;;;2.37;;
9422;SDS011;65863;49.506;10.400;2023-11-21T03:14:04;4.00;;;2.50;;
9422;SDS011;65863;49.506;10.400;2023-11-21T03:16:48;3.50;;;2.67;;
9422;SDS011;65863;49.506;10.400;2023-11-21T03:19:33;9.43;;;3.00;;
9422;SDS011;65863;49.506;10.400;2023-11-21T03:22:17;2.60;;;2.40;;
9422;SDS011;65863;49.506;10.400;2023-11-21T03:25:01;2.70;;;2.00;;
9422;SDS011;65863;49.506;10.400;2023-11-21T03:27:45;3.57;;;2.80;;
9422;SDS011;65863;49.506;10.400;2023-11-21T03:30:29;2.80;;;2.47;;
9422;SDS011;65863;49.506;10.400;2023-11-21T03:33:13;5.00;;;2.53;;
9422;SDS011;65863;49.506;10.400;2023-11-21T03:35:57;5.80;;;2.60;;
9422;SDS011;65863;49.506;10.400;2023-11-21T03:38:41;5.17;;;2.50;;
9422;SDS011;65863;49.506;10.400;2023-11-21T03:41:25;7.03;;;2.53;;
9422;SDS011;65863;49.506;10.400;2023-11-21T03:44:09;4.30;;;2.63;;
9422;SDS011;65863;49.506;10.400;2023-11-21T03:46:54;3.53;;;2.33;;
9422;SDS011;65863;49.506;10.400;2023-11-21T03:49:38;4.73;;;2.40;;
9422;SDS011;65863;49.506;10.400;2023-11-21T03:52:22;4.57;;;2.70;;
9422;SDS011;65863;49.506;10.400;2023-11-21T03:55:06;2.20;;;2.07;;
9422;SDS011;65863;49.506;10.400;2023-11-21T03:57:51;2.90;;;2.30;;
9422;SDS011;65863;49.506;10.400;2023-11-21T04:00:37;4.17;;;2.10;;
9422;SDS011;65863;49.506;10.400;2023-11-21T04:03:21;2.30;;;2.10;;
9422;SDS011;65863;49.506;10.400;2023-11-21T04:06:05;2.57;;;2.23;;
9422;SDS011;65863;49.506;10.400;2023-11-21T04:08:50;3.03;;;2.10;;
9422;SDS011;65863;49.506;10.400;2023-11-21T04:11:34;3.53;;;2.40;;
9422;SDS011;65863;49.506;10.400;2023-11-21T04:14:18;4.43;;;2.60;;
9422;SDS011;65863;49.506;10.400;2023-11-21T04:17:02;4.23;;;2.30;;
9422;SDS011;65863;49.506;10.400;2023-11-21T04:19:47;2.77;;;2.27;;
9422;SDS011;65863;49.506;10.400;2023-11-21T04:22:31;5.83;;;2.53;;
9422;SDS011;65863;49.506;10.400;2023-11-21T04:25:16;3.83;;;2.50;;
9422;SDS011;65863;49.506;10.400;2023-11-21T04:28:01;3.80;;;2.47;;
9422;SDS011;65863;49.506;10.400;2023-11-21T04:30:44;4.40;;;2.40;;
9422;SDS011;65863;49.506;10.400;2023-11-21T04:33:29;4.07;;;2.90;;
9422;SDS011;65863;49.506;10.400;2023-11-21T04:36:14;2.90;;;2.70;;
9422;SDS011;65863;49.506;10.400;2023-11-21T04:39:17;3.40;;;2.30;;
9422;SDS011;65863;49.506;10.400;2023-11-21T04:42:07;4.90;;;2.50;;
9422;SDS011;65863;49.506;10.400;2023-11-21T04:44:51;3.93;;;2.40;;
9422;SDS011;65863;49.506;10.400;2023-11-21T04:47:36;4.37;;;2.43;;
9422;SDS011;65863;49.506;10.400;2023-11-21T04:50:20;4.33;;;2.33;;
9422;SDS011;65863;49.506;10.400;2023-11-21T04:53:04;3.10;;;2.67;;
9422;SDS011;65863;49.506;10.400;2023-11-21T04:55:49;5.40;;;2.37;;
9422;SDS011;65863;49.506;10.400;2023-11-21T04:58:33;3.47;;;2.30;;
9422;SDS011;65863;49.506;10.400;2023-11-21T05:01:17;4.07;;;2.50;;
9422;SDS011;65863;49.506;10.400;2023-11-21T05:04:01;3.10;;;2.80;;
9422;SDS011;65863;49.506;10.400;2023-11-21T05:06:45;3.00;;;2.70;;
9422;SDS011;65863;49.506;10.400;2023-11-21T05:09:30;3.10;;;2.57;;
9422;SDS011;65863;49.506;10.400;2023-11-21T05:12:15;3.23;;;2.93;;
9422;SDS011;65863;49.506;10.400;2023-11-21T05:14:59;3.20;;;2.70;;
9422;SDS011;65863;49.506;10.400;2023-11-21T05:17:44;5.63;;;3.13;;
9422;SDS011;65863;49.506;10.400;2023-11-21T05:20:29;4.13;;;3.13;;
9422;SDS011;65863;49.506;10.400;2023-11-21T05:23:13;2.73;;;2.53;;
9422;SDS011;65863;49.506;10.400;2023-11-21T05:25:57;3.17;;;2.87;;
9422;SDS011;65863;49.506;10.400;2023-11-21T05:28:41;2.93;;;2.50;;
9422;SDS011;65863;49.506;10.400;2023-11-21T05:31:25;3.90;;;2.90;;
9422;SDS011;65863;49.506;10.400;2023-11-21T05:34:09;4.37;;;2.77;;
9422;SDS011;65863;49.506;10.400;2023-11-21T05:36:53;2.97;;;2.70;;
9422;SDS011;65863;49.506;10.400;2023-11-21T05:39:37;3.23;;;2.87;;
9422;SDS011;65863;49.506;10.400;2023-11-21T05:42:21;2.67;;;2.47;;
9422;SDS011;65863;49.506;10.400;2023-11-21T05:45:05;2.80;;;2.43;;
9422;SDS011;65863;49.506;10.400;2023-11-21T05:47:55;2.80;;;2.60;;
9422;SDS011;65863;49.506;10.400;2023-11-21T05:50:39;3.17;;;2.67;;
9422;SDS011;65863;49.506;10.400;2023-11-21T05:53:23;3.30;;;3.00;;
9422;SDS011;65863;49.506;10.400;2023-11-21T05:56:07;6.03;;;3.27;;
9422;SDS011;65863;49.506;10.400;2023-11-21T05:58:51;6.17;;;3.40;;
9422;SDS011;65863;49.506;10.400;2023-11-21T06:01:36;4.80;;;3.53;;
9422;SDS011;65863;49.506;10.400;2023-11-21T06:04:22;6.70;;;3.80;;
9422;SDS011;65863;49.506;10.400;2023-11-21T06:07:07;3.70;;;3.30;;
9422;SDS011;65863;49.506;10.400;2023-11-21T06:09:52;3.63;;;3.30;;
9422;SDS011;65863;49.506;10.400;2023-11-21T06:12:36;3.50;;;3.13;;
9422;SDS011;65863;49.506;10.400;2023-11-21T06:15:44;3.53;;;3.20;;
9422;SDS011;65863;49.506;10.400;2023-11-21T06:18:28;3.77;;;3.43;;
9422;SDS011;65863;49.506;10.400;2023-11-21T06:21:12;3.80;;;3.40;;
9422;SDS011;65863;49.506;10.400;2023-11-21T06:23:57;4.93;;;3.33;;
9422;SDS011;65863;49.506;10.400;2023-11-21T06:26:41;4.67;;;3.30;;
9422;SDS011;65863;49.506;10.400;2023-11-21T06:29:25;3.37;;;3.00;;
9422;SDS011;65863;49.506;10.400;2023-11-21T06:32:10;5.55;;;4.28;;
9422;SDS011;65863;49.506;10.400;2023-11-21T06:34:55;4.27;;;3.60;;
9422;SDS011;65863;49.506;10.400;2023-11-21T06:37:39;5.57;;;3.80;;
9422;SDS011;65863;49.506;10.400;2023-11-21T06:40:23;5.87;;;3.70;;
9422;SDS011;65863;49.506;10.400;2023-11-21T06:43:08;4.77;;;3.70;;
9422;SDS011;65863;49.506;10.400;2023-11-21T06:45:52;6.27;;;4.10;;
9422;SDS011;65863;49.506;10.400;2023-11-21T06:48:39;4.90;;;3.77;;
9422;SDS011;65863;49.506;10.400;2023-11-21T06:52:00;8.10;;;3.30;;
9422;SDS011;65863;49.506;10.400;2023-11-21T06:54:50;6.53;;;4.00;;
9422;SDS011;65863;49.506;10.400;2023-11-21T06:57:34;4.73;;;3.57;;
9422;SDS011;65863;49.506;10.400;2023-11-21T07:00:19;4.97;;;3.73;;
9422;SDS011;65863;49.506;10.400;2023-11-21T07:03:03;4.53;;;3.33;;
9422;SDS011;65863;49.506;10.400;2023-11-21T07:05:48;6.43;;;4.00;;
9422;SDS011;65863;49.506;10.400;2023-11-21T07:08:32;4.33;;;3.30;;
9422;SDS011;65863;49.506;10.400;2023-11-21T07:11:15;4.47;;;3.60;;
9422;SDS011;65863;49.506;10.400;2023-11-21T07:14:00;5.05;;;4.45;;
9422;SDS011;65863;49.506;10.400;2023-11-21T07:16:50;5.43;;;3.83;;
9422;SDS011;65863;49.506;10.400;2023-11-21T07:19:36;6.60;;;4.27;;
9422;SDS011;65863;49.506;10.400;2023-11-21T07:22:20;5.20;;;3.80;;
9422;SDS011;65863;49.506;10.400;2023-11-21T07:25:42;4.20;;;3.80;;
9422;SDS011;65863;49.506;10.400;2023-11-21T07:28:26;6.87;;;4.00;;
9422;SDS011;65863;49.506;10.400;2023-11-21T07:31:10;5.33;;;4.37;;
9422;SDS011;65863;49.506;10.400;2023-11-21T07:33:54;4.60;;;4.17;;
9422;SDS011;65863;49.506;10.400;2023-11-21T07:36:41;7.60;;;4.30;;
9422;SDS011;65863;49.506;10.400;2023-11-21T07:39:24;4.33;;;3.93;;
9422;SDS011;65863;49.506;10.400;2023-11-21T07:42:09;4.67;;;4.13;;
9422;SDS011;65863;49.506;10.400;2023-11-21T07:44:54;5.50;;;3.90;;
9422;SDS011;65863;49.506;10.400;2023-11-21T07:47:38;5.07;;;4.40;;
9422;SDS011;65863;49.506;10.400;2023-11-21T07:50:23;5.57;;;4.10;;
9422;SDS011;65863;49.506;10.400;2023-11-21T07:53:07;3.67;;;3.37;;
9422;SDS011;65863;49.506;10.400;2023-11-21T07:55:51;4.73;;;3.70;;
9422;SDS011;65863;49.506;10.400;2023-11-21T07:58:36;5.00;;;3.97;;
9422;SDS011;65863;49.506;10.400;2023-11-21T08:01:20;6.60;;;3.93;;
9422;SDS011;65863;49.506;10.400;2023-11-21T08:04:04;6.40;;;4.50;;
9422;SDS011;65863;49.506;10.400;2023-11-21T08:06:48;5.03;;;3.87;;
9422;SDS011;65863;49.506;10.400;2023-11-21T08:09:32;4.50;;;4.10;;
9422;SDS011;65863;49.506;10.400;2023-11-21T08:12:18;4.80;;;4.30;;
9422;SDS011;65863;49.506;10.400;2023-11-21T08:15:04;4.40;;;4.00;;
9422;SDS011;65863;49.506;10.400;2023-11-21T08:17:49;4.43;;;4.03;;
9422;SDS011;65863;49.506;10.400;2023-11-21T08:20:33;5.30;;;4.00;;
9422;SDS011;65863;49.506;10.400;2023-11-21T08:23:18;4.23;;;3.83;;
9422;SDS011;65863;49.506;10.400;2023-11-21T08:26:02;4.55;;;3.90;;
9422;SDS011;65863;49.506;10.400;2023-11-21T08:28:48;4.20;;;3.80;;
9422;SDS011;65863;49.506;10.400;2023-11-21T08:31:33;5.30;;;4.10;;
9422;SDS011;65863;49.506;10.400;2023-11-21T08:34:17;3.37;;;3.10;;
9422;SDS011;65863;49.506;10.400;2023-11-21T08:37:02;2.53;;;2.33;;
9422;SDS011;65863;49.506;10.400;2023-11-21T08:39:46;4.23;;;2.90;;
9422;SDS011;65863;49.506;10.400;2023-11-21T08:42:50;3.30;;;2.90;;
9422;SDS011;65863;49.506;10.400;2023-11-21T08:45:41;3.80;;;3.40;;
9422;SDS011;65863;49.506;10.400;2023-11-21T08:48:25;4.23;;;3.60;;
9422;SDS011;65863;49.506;10.400;2023-11-21T08:51:12;4.27;;;3.63;;
9422;SDS011;65863;49.506;10.400;2023-11-21T08:53:56;6.40;;;3.47;;
9422;SDS011;65863;49.506;10.400;2023-11-21T08:56:43;3.23;;;2.97;;
9422;SDS011;65863;49.506;10.400;2023-11-21T08:59:27;3.67;;;3.03;;
9422;SDS011;65863;49.506;10.400;2023-11-21T09:02:11;3.50;;;3.00;;
9422;SDS011;65863;49.506;10.400;2023-11-21T09:04:55;3.53;;;3.17;;
9422;SDS011;65863;49.506;10.400;2023-11-21T09:07:39;3.23;;;2.90;;
9422;SDS011;65863;49.506;10.400;2023-11-21T09:10:25;3.13;;;2.83;;
9422;SDS011;65863;49.506;10.400;2023-11-21T09:13:09;4.73;;;3.10;;
9422;SDS011;65863;49.506;10.400;2023-11-21T09:15:54;3.73;;;3.43;;
9422;SDS011;65863;49.506;10.400;2023-11-21T09:18:38;5.37;;;3.73;;
9422;SDS011;65863;49.506;10.400;2023-11-21T09:21:23;6.93;;;4.80;;
9422;SDS011;65863;49.506;10.400;2023-11-21T09:24:08;6.20;;;4.00;;
9422;SDS011;65863;49.506;10.400;2023-11-21T09:26:52;5.40;;;4.07;;
9422;SDS011;65863;49.506;10.400;2023-11-21T09:29:36;11.47;;;4.63;;
9422;SDS011;65863;49.506;10.400;2023-11-21T09:32:23;6.67;;;4.50;;
9422;SDS011;65863;49.506;10.400;2023-11-21T09:35:08;8.90;;;5.53;;
9422;SDS011;65863;49.506;10.400;2023-11-21T09:37:52;8.87;;;5.80;;
9422;SDS011;65863;49.506;10.400;2023-11-21T09:40:36;11.20;;;6.00;;
9422;SDS011;65863;49.506;10.400;2023-11-21T09:43:21;8.07;;;5.60;;
9422;SDS011;65863;49.506;10.400;2023-11-21T09:46:05;10.10;;;6.13;;
9422;SDS011;65863;49.506;10.400;2023-11-21T09:48:54;10.43;;;5.40;;
9422;SDS011;65863;49.506;10.400;2023-11-21T09:51:42;6.00;;;4.50;;
9422;SDS011;65863;49.506;10.400;2023-11-21T09:54:27;7.70;;;5.38;;
9422;SDS011;65863;49.506;10.400;2023-11-21T09:57:13;8.43;;;5.47;;
9422;SDS011;65863;49.506;10.400;2023-11-21T09:59:57;7.87;;;5.43;;
9422;SDS011;65863;49.506;10.400;2023-11-21T10:02:49;5.17;;;3.90;;
9422;SDS011;65863;49.506;10.400;2023-11-21T10:05:34;5.33;;;3.97;;
9422;SDS011;65863;49.506;10.400;2023-11-21T10:08:19;5.40;;;4.10;;
9422;SDS011;65863;49.506;10.400;2023-11-21T10:11:04;6.80;;;4.83;;
9422;SDS011;65863;49.506;10.400;2023-11-21T10:13:52;4.63;;;4.17;;
9422;SDS011;65863;49.506;10.400;2023-11-21T10:16:41;5.87;;;4.57;;
9422;SDS011;65863;49.506;10.400;2023-11-21T10:19:28;4.67;;;4.13;;
9422;SDS011;65863;49.506;10.400;2023-11-21T10:22:16;6.73;;;4.30;;
9422;SDS011;65863;49.506;10.400;2023-11-21T10:25:01;4.40;;;4.00;;
9422;SDS011;65863;49.506;10.400;2023-11-21T10:27:46;5.00;;;4.23;;
9422;SDS011;65863;49.506;10.400;2023-11-21T10:30:34;5.47;;;4.50;;
9422;SDS011;65863;49.506;10.400;2023-11-21T10:33:26;4.87;;;4.20;;
9422;SDS011;65863;49.506;10.400;2023-11-21T10:36:12;4.47;;;3.83;;
9422;SDS011;65863;49.506;10.400;2023-11-21T10:38:56;4.10;;;3.70;;
9422;SDS011;65863;49.506;10.400;2023-11-21T10:41:40;4.43;;;4.03;;
9422;SDS011;65863;49.506;10.400;2023-11-21T10:44:24;4.67;;;4.00;;
9422;SDS011;65863;49.506;10.400;2023-11-21T10:47:09;4.70;;;3.93;;
9422;SDS011;65863;49.506;10.400;2023-11-21T10:49:55;4.00;;;3.60;;
9422;SDS011;65863;49.506;10.400;2023-11-21T10:52:40;4.20;;;3.83;;
9422;SDS011;65863;49.506;10.400;2023-11-21T10:55:26;4.97;;;3.57;;
9422;SDS011;65863;49.506;10.400;2023-11-21T10:58:10;4.80;;;3.23;;
9422;SDS011;65863;49.506;10.400;2023-11-21T11:00:57;3.90;;;3.10;;
9422;SDS011;65863;49.506;10.400;2023-11-21T11:03:43;2.70;;;2.10;;
9422;SDS011;65863;49.506;10.400;2023-11-21T11:06:28;3.50;;;2.27;;
9422;SDS011;65863;49.506;10.400;2023-11-21T11:09:32;2.43;;;2.23;;
9422;SDS011;65863;49.506;10.400;2023-11-21T11:12:38;2.60;;;2.40;;
9422;SDS011;65863;49.506;10.400;2023-11-21T11:15:24;3.50;;;3.17;;
9422;SDS011;65863;49.506;10.400;2023-11-21T11:18:09;3.53;;;2.27;;
9422;SDS011;65863;49.506;10.400;2023-11-21T11:20:53;3.57;;;2.23;;
9422;SDS011;65863;49.506;10.400;2023-11-21T11:34:26;2.63;;;2.43;;
9422;SDS011;65863;49.506;10.400;2023-11-21T11:37:38;8.03;;;2.90;;
9422;SDS011;65863;49.506;10.400;2023-11-21T11:40:22;2.93;;;2.73;;
9422;SDS011;65863;49.506;10.400;2023-11-21T11:43:26;3.27;;;2.90;;
9422;SDS011;65863;49.506;10.400;2023-11-21T11:46:42;2.83;;;2.63;;
9422;SDS011;65863;49.506;10.400;2023-11-21T11:50:07;5.10;;;2.67;;
9422;SDS011;65863;49.506;10.400;2023-11-21T11:53:22;2.67;;;2.47;;
9422;SDS011;65863;49.506;10.400;2023-11-21T11:56:26;3.27;;;2.77;;
9422;SDS011;65863;49.506;10.400;2023-11-21T11:59:19;3.80;;;2.97;;
9422;SDS011;65863;49.506;10.400;2023-11-21T12:02:04;4.73;;;3.70;;
9422;SDS011;65863;49.506;10.400;2023-11-21T12:04:48;5.20;;;3.00;;
9422;SDS011;65863;49.506;10.400;2023-11-21T12:07:45;3.13;;;2.83;;
9422;SDS011;65863;49.506;10.400;2023-11-21T12:10:34;4.00;;;3.00;;
9422;SDS011;65863;49.506;10.400;2023-11-21T12:13:19;2.87;;;2.60;;
9422;SDS011;65863;49.506;10.400;2023-11-21T12:16:04;3.43;;;2.50;;
9422;SDS011;65863;49.506;10.400;2023-11-21T12:18:48;3.07;;;2.73;;
9422;SDS011;65863;49.506;10.400;2023-11-21T12:21:32;2.77;;;2.37;;
9422;SDS011;65863;49.506;10.400;2023-11-21T12:24:16;3.20;;;2.80;;
9422;SDS011;65863;49.506;10.400;2023-11-21T12:27:00;3.50;;;3.10;;
9422;SDS011;65863;49.506;10.400;2023-11-21T12:29:44;3.40;;;3.10;;
9422;SDS011;65863;49.506;10.400;2023-11-21T12:32:29;4.00;;;2.80;;
9422;SDS011;65863;49.506;10.400;2023-11-21T12:35:32;4.73;;;3.33;;
9422;SDS011;65863;49.506;10.400;2023-11-21T12:38:37;4.77;;;3.17;;
9422;SDS011;65863;49.506;10.400;2023-11-21T12:41:40;4.63;;;3.40;;
9422;SDS011;65863;49.506;10.400;2023-11-21T12:44:45;4.40;;;3.03;;
9422;SDS011;65863;49.506;10.400;2023-11-21T12:47:50;4.47;;;3.13;;
9422;SDS011;65863;49.506;10.400;2023-11-21T12:50:54;3.93;;;3.63;;
9422;SDS011;65863;49.506;10.400;2023-11-21T12:53:58;4.70;;;3.00;;
9422;SDS011;65863;49.506;10.400;2023-11-21T12:56:44;3.70;;;3.23;;
9422;SDS011;65863;49.506;10.400;2023-11-21T12:59:31;4.50;;;3.20;;
9422;SDS011;65863;49.506;10.400;2023-11-21T13:02:16;4.57;;;2.80;;
9422;SDS011;65863;49.506;10.400;2023-11-21T13:05:00;5.07;;;2.97;;
9422;SDS011;65863;49.506;10.400;2023-11-21T13:07:50;3.10;;;2.80;;
9422;SDS011;65863;49.506;10.400;2023-11-21T13:10:42;3.80;;;2.40;;
9422;SDS011;65863;49.506;10.400;2023-11-21T13:13:30;3.07;;;1.90;;
9422;SDS011;65863;49.506;10.400;2023-11-21T13:16:15;2.30;;;1.43;;
9422;SDS011;65863;49.506;10.400;2023-11-21T13:18:59;1.50;;;1.20;;
9422;SDS011;65863;49.506;10.400;2023-11-21T13:21:43;1.65;;;1.15;;
9422;SDS011;65863;49.506;10.400;2023-11-21T13:24:27;1.50;;;1.40;;
9422;SDS011;65863;49.506;10.400;2023-11-21T13:27:11;1.53;;;1.37;;
9422;SDS011;65863;49.506;10.400;2023-11-21T13:30:14;2.03;;;1.83;;
9422;SDS011;65863;49.506;10.400;2023-11-21T13:33:00;2.47;;;1.83;;
9422;SDS011;65863;49.506;10.400;2023-11-21T13:36:00;2.20;;;1.90;;
9422;SDS011;65863;49.506;10.400;2023-11-21T13:38:46;3.47;;;1.90;;
9422;SDS011;65863;49.506;10.400;2023-11-21T13:41:30;4.00;;;1.60;;
9422;SDS011;65863;49.506;10.400;2023-11-21T13:44:33;1.60;;;1.50;;
9422;SDS011;65863;49.506;10.400;2023-11-21T13:47:41;3.30;;;1.90;;
9422;SDS011;65863;49.506;10.400;2023-11-21T13:50:43;1.67;;;1.57;;
9422;SDS011;65863;49.506;10.400;2023-11-21T13:54:01;2.20;;;2.00;;
9422;SDS011;65863;49.506;10.400;2023-11-21T13:57:04;1.87;;;1.60;;
9422;SDS011;65863;49.506;10.400;2023-11-21T14:00:08;2.17;;;1.77;;
9422;SDS011;65863;49.506;10.400;2023-11-21T14:03:31;1.40;;;1.20;;
9422;SDS011;65863;49.506;10.400;2023-11-21T14:06:35;2.97;;;1.50;;
9422;SDS011;65863;49.506;10.400;2023-11-21T14:09:49;4.03;;;1.93;;
9422;SDS011;65863;49.506;10.400;2023-11-21T14:12:34;1.83;;;1.73;;
9422;SDS011;65863;49.506;10.400;2023-11-21T14:15:20;2.70;;;1.70;;
9422;SDS011;65863;49.506;10.400;2023-11-21T14:18:04;2.63;;;1.97;;
9422;SDS011;65863;49.506;10.400;2023-11-21T14:20:51;3.40;;;2.20;;
9422;SDS011;65863;49.506;10.400;2023-11-21T14:23:55;2.93;;;1.90;;
9422;SDS011;65863;49.506;10.400;2023-11-21T14:26:42;1.90;;;1.80;;
9422;SDS011;65863;49.506;10.400;2023-11-21T14:29:45;2.00;;;1.70;;
9422;SDS011;65863;49.506;10.400;2023-11-21T14:32:48;3.22;;;1.90;;
9422;SDS011;65863;49.506;10.400;2023-11-21T14:35:51;2.23;;;1.63;;
9422;SDS011;65863;49.506;10.400;2023-11-21T14:38:54;3.27;;;1.70;;
9422;SDS011;65863;49.506;10.400;2023-11-21T14:41:51;1.70;;;1.60;;
9422;SDS011;65863;49.506;10.400;2023-11-21T14:44:55;2.40;;;1.77;;
9422;SDS011;65863;49.506;10.400;2023-11-21T14:47:43;1.30;;;1.20;;
9422;SDS011;65863;49.506;10.400;2023-11-21T14:50:33;2.67;;;1.70;;
9422;SDS011;65863;49.506;10.400;2023-11-21T14:53:36;3.60;;;2.17;;
9422;SDS011;65863;49.506;10.400;2023-11-21T14:56:35;4.33;;;2.10;;
9422;SDS011;65863;49.506;10.400;2023-11-21T14:59:21;2.13;;;1.93;;
9422;SDS011;65863;49.506;10.400;2023-11-21T15:02:06;2.90;;;1.67;;
9422;SDS011;65863;49.506;10.400;2023-11-21T15:04:58;4.67;;;2.40;;
9422;SDS011;65863;49.506;10.400;2023-11-21T15:07:46;3.07;;;1.90;;
9422;SDS011;65863;49.506;10.400;2023-11-21T15:10:32;2.23;;;1.60;;
9422;SDS011;65863;49.506;10.400;2023-11-21T15:13:41;2.33;;;1.40;;
9422;SDS011;65863;49.506;10.400;2023-11-21T15:16:45;2.60;;;1.97;;
9422;SDS011;65863;49.506;10.400;2023-11-21T15:19:53;2.57;;;2.00;;
9422;SDS011;65863;49.506;10.400;2023-11-21T15:22:37;3.77;;;2.10;;
9422;SDS011;65863;49.506;10.400;2023-11-21T15:25:42;3.73;;;1.80;;
9422;SDS011;65863;49.506;10.400;2023-11-21T15:28:26;5.07;;;2.00;;
9422;SDS011;65863;49.506;10.400;2023-11-21T15:31:28;2.40;;;1.70;;
9422;SDS011;65863;49.506;10.400;2023-11-21T15:34:12;2.10;;;1.70;;
9422;SDS011;65863;49.506;10.400;2023-11-21T15:37:15;2.43;;;1.67;;
9422;SDS011;65863;49.506;10.400;2023-11-21T15:39:59;3.30;;;1.67;;
9422;SDS011;65863;49.506;10.400;2023-11-21T15:42:44;1.70;;;1.60;;
9422;SDS011;65863;49.506;10.400;2023-11-21T15:45:28;2.20;;;1.63;;
9422;SDS011;65863;49.506;10.400;2023-11-21T15:48:13;4.17;;;2.00;;
9422;SDS011;65863;49.506;10.400;2023-11-21T15:51:16;1.80;;;1.70;;
9422;SDS011;65863;49.506;10.400;2023-11-21T15:54:20;4.90;;;1.90;;
9422;SDS011;65863;49.506;10.400;2023-11-21T15:57:24;5.33;;;1.90;;
9422;SDS011;65863;49.506;10.400;2023-11-21T16:00:08;2.77;;;1.80;;
9422;SDS011;65863;49.506;10.400;2023-11-21T16:03:18;2.70;;;2.30;;
9422;SDS011;65863;49.506;10.400;2023-11-21T16:06:21;2.10;;;1.90;;
9422;SDS011;65863;49.506;10.400;2023-11-21T16:09:05;4.00;;;2.00;;
9422;SDS011;65863;49.506;10.400;2023-11-21T16:12:08;4.27;;;2.67;;
9422;SDS011;65863;49.506;10.400;2023-11-21T16:14:52;3.50;;;2.40;;
9422;SDS011;65863;49.506;10.400;2023-11-21T16:17:55;2.70;;;2.20;;
9422;SDS011;65863;49.506;10.400;2023-11-21T16:20:39;4.73;;;2.63;;
9422;SDS011;65863;49.506;10.400;2023-11-21T16:23:42;9.27;;;2.40;;
9422;SDS011;65863;49.506;10.400;2023-11-21T16:26:32;9.43;;;2.80;;
9422;SDS011;65863;49.506;10.400;2023-11-21T16:29:19;6.40;;;2.77;;
9422;SDS011;65863;49.506;10.400;2023-11-21T16:32:03;7.30;;;3.10;;
9422;SDS011;65863;49.506;10.400;2023-11-21T16:34:47;7.83;;;2.60;;
9422;SDS011;65863;49.506;10.400;2023-11-21T16:37:32;5.43;;;3.43;;
9422;SDS011;65863;49.506;10.400;2023-11-21T16:40:16;4.50;;;2.90;;
9422;SDS011;65863;49.506;10.400;2023-11-21T16:43:02;10.30;;;3.30;;
9422;SDS011;65863;49.506;10.400;2023-11-21T16:45:49;7.47;;;3.00;;
9422;SDS011;65863;49.506;10.400;2023-11-21T16:48:35;5.30;;;3.37;;
9422;SDS011;65863;49.506;10.400;2023-11-21T16:51:39;7.87;;;4.10;;
9422;SDS011;65863;49.506;10.400;2023-11-21T16:54:23;5.20;;;3.43;;
9422;SDS011;65863;49.506;10.400;2023-11-21T16:57:07;7.30;;;3.93;;
9422;SDS011;65863;49.506;10.400;2023-11-21T16:59:53;7.37;;;3.20;;
9422;SDS011;65863;49.506;10.400;2023-11-21T17:02:57;9.77;;;3.30;;
9422;SDS011;65863;49.506;10.400;2023-11-21T17:06:00;8.77;;;3.57;;